sensor_id;sensor_type;location;lat;lon;timestamp;P1;durP1;ratioP1;P2;durP2;ratioP2
3297;SDS011;1661;53.572;10.174;2022-11-15T00:02:24;46.50;;;29.47;;
3297;SDS011;1661;53.572;10.174;2022-11-15T00:04:52;48.60;;;30.90;;
3297;SDS011;1661;53.572;10.174;2022-11-15T00:07:18;42.20;;;27.50;;
3297;SDS011;1661;53.572;10.174;2022-11-15T00:09:45;54.30;;;30.87;;
3297;SDS011;1661;53.572;10.174;2022-11-15T00:12:12;38.50;;;25.13;;
3297;SDS011;1661;53.572;10.174;2022-11-15T00:14:39;53.90;;;30.30;;
3297;SDS011;1661;53.572;10.174;2022-11-15T00:17:07;50.90;;;30.80;;
3297;SDS011;1661;53.572;10.174;2022-11-15T00:19:37;67.07;;;34.63;;
3297;SDS011;1661;53.572;10.174;2022-11-15T00:22:04;51.27;;;29.73;;
3297;SDS011;1661;53.572;10.174;2022-11-15T00:24:30;52.13;;;30.97;;
3297;SDS011;1661;53.572;10.174;2022-11-15T00:26:57;43.60;;;26.10;;
3297;SDS011;1661;53.572;10.174;2022-11-15T00:29:25;42.87;;;25.40;;
3297;SDS011;1661;53.572;10.174;2022-11-15T00:31:52;50.97;;;31.57;;
3297;SDS011;1661;53.572;10.174;2022-11-15T00:34:20;57.27;;;33.13;;
3297;SDS011;1661;53.572;10.174;2022-11-15T00:36:47;52.63;;;32.47;;
3297;SDS011;1661;53.572;10.174;2022-11-15T00:39:14;50.53;;;30.53;;
3297;SDS011;1661;53.572;10.174;2022-11-15T00:41:41;50.43;;;30.67;;
3297;SDS011;1661;53.572;10.174;2022-11-15T00:44:07;46.33;;;29.80;;
3297;SDS011;1661;53.572;10.174;2022-11-15T00:46:34;45.70;;;30.60;;
3297;SDS011;1661;53.572;10.174;2022-11-15T00:49:01;40.40;;;26.73;;
3297;SDS011;1661;53.572;10.174;2022-11-15T00:51:32;51.73;;;31.50;;
3297;SDS011;1661;53.572;10.174;2022-11-15T00:53:59;46.57;;;29.67;;
3297;SDS011;1661;53.572;10.174;2022-11-15T00:56:26;49.40;;;27.50;;
3297;SDS011;1661;53.572;10.174;2022-11-15T00:58:53;46.93;;;29.23;;
3297;SDS011;1661;53.572;10.174;2022-11-15T01:01:20;45.77;;;28.57;;
3297;SDS011;1661;53.572;10.174;2022-11-15T01:03:47;60.40;;;33.27;;
3297;SDS011;1661;53.572;10.174;2022-11-15T01:06:17;52.47;;;31.37;;
3297;SDS011;1661;53.572;10.174;2022-11-15T01:08:45;49.47;;;28.20;;
3297;SDS011;1661;53.572;10.174;2022-11-15T01:11:12;41.80;;;28.90;;
3297;SDS011;1661;53.572;10.174;2022-11-15T01:13:39;48.17;;;29.17;;
3297;SDS011;1661;53.572;10.174;2022-11-15T01:16:07;50.00;;;31.03;;
3297;SDS011;1661;53.572;10.174;2022-11-15T01:18:35;43.63;;;29.77;;
3297;SDS011;1661;53.572;10.174;2022-11-15T01:21:04;46.87;;;30.30;;
3297;SDS011;1661;53.572;10.174;2022-11-15T01:23:32;53.77;;;31.93;;
3297;SDS011;1661;53.572;10.174;2022-11-15T01:26:01;45.00;;;28.33;;
3297;SDS011;1661;53.572;10.174;2022-11-15T01:28:32;44.07;;;26.77;;
3297;SDS011;1661;53.572;10.174;2022-11-15T01:30:59;36.97;;;26.10;;
3297;SDS011;1661;53.572;10.174;2022-11-15T01:33:27;55.60;;;31.23;;
3297;SDS011;1661;53.572;10.174;2022-11-15T01:35:54;51.20;;;29.10;;
3297;SDS011;1661;53.572;10.174;2022-11-15T01:38:21;48.93;;;29.70;;
3297;SDS011;1661;53.572;10.174;2022-11-15T01:40:48;52.50;;;30.93;;
3297;SDS011;1661;53.572;10.174;2022-11-15T01:43:21;49.73;;;28.83;;
3297;SDS011;1661;53.572;10.174;2022-11-15T01:45:49;49.23;;;29.70;;
3297;SDS011;1661;53.572;10.174;2022-11-15T01:48:18;45.17;;;26.73;;
3297;SDS011;1661;53.572;10.174;2022-11-15T01:50:46;43.27;;;27.40;;
3297;SDS011;1661;53.572;10.174;2022-11-15T01:53:13;46.10;;;29.43;;
3297;SDS011;1661;53.572;10.174;2022-11-15T01:55:40;48.80;;;29.00;;
3297;SDS011;1661;53.572;10.174;2022-11-15T01:58:07;43.63;;;28.37;;
3297;SDS011;1661;53.572;10.174;2022-11-15T02:00:53;46.37;;;28.60;;
3297;SDS011;1661;53.572;10.174;2022-11-15T02:03:20;49.07;;;30.93;;
3297;SDS011;1661;53.572;10.174;2022-11-15T02:05:52;48.07;;;28.30;;
3297;SDS011;1661;53.572;10.174;2022-11-15T02:08:22;35.47;;;23.80;;
3297;SDS011;1661;53.572;10.174;2022-11-15T02:10:49;36.20;;;24.70;;
3297;SDS011;1661;53.572;10.174;2022-11-15T02:13:16;35.50;;;24.07;;
3297;SDS011;1661;53.572;10.174;2022-11-15T02:15:49;39.30;;;23.70;;
3297;SDS011;1661;53.572;10.174;2022-11-15T02:18:26;35.73;;;24.30;;
3297;SDS011;1661;53.572;10.174;2022-11-15T02:20:59;47.80;;;28.50;;
3297;SDS011;1661;53.572;10.174;2022-11-15T02:24:02;44.13;;;28.23;;
3297;SDS011;1661;53.572;10.174;2022-11-15T02:29:59;42.17;;;26.80;;
3297;SDS011;1661;53.572;10.174;2022-11-15T02:32:35;31.53;;;21.40;;
3297;SDS011;1661;53.572;10.174;2022-11-15T02:35:09;35.90;;;24.83;;
3297;SDS011;1661;53.572;10.174;2022-11-15T02:37:47;38.60;;;25.70;;
3297;SDS011;1661;53.572;10.174;2022-11-15T02:40:23;45.53;;;29.80;;
3297;SDS011;1661;53.572;10.174;2022-11-15T02:43:01;33.77;;;22.90;;
3297;SDS011;1661;53.572;10.174;2022-11-15T02:45:52;38.17;;;23.87;;
3297;SDS011;1661;53.572;10.174;2022-11-15T02:48:27;33.27;;;23.60;;
3297;SDS011;1661;53.572;10.174;2022-11-15T02:50:55;35.43;;;23.17;;
3297;SDS011;1661;53.572;10.174;2022-11-15T02:53:23;35.63;;;24.10;;
3297;SDS011;1661;53.572;10.174;2022-11-15T02:55:51;31.60;;;20.63;;
3297;SDS011;1661;53.572;10.174;2022-11-15T02:58:23;23.87;;;18.80;;
3297;SDS011;1661;53.572;10.174;2022-11-15T03:01:08;30.17;;;19.23;;
3297;SDS011;1661;53.572;10.174;2022-11-15T03:03:51;34.13;;;20.10;;
3297;SDS011;1661;53.572;10.174;2022-11-15T03:06:29;37.47;;;22.70;;
3297;SDS011;1661;53.572;10.174;2022-11-15T03:09:04;36.23;;;24.37;;
3297;SDS011;1661;53.572;10.174;2022-11-15T03:11:37;40.03;;;22.83;;
3297;SDS011;1661;53.572;10.174;2022-11-15T03:14:09;25.60;;;19.20;;
3297;SDS011;1661;53.572;10.174;2022-11-15T03:16:48;33.47;;;21.30;;
3297;SDS011;1661;53.572;10.174;2022-11-15T03:19:25;39.87;;;23.07;;
3297;SDS011;1661;53.572;10.174;2022-11-15T03:21:58;28.57;;;20.40;;
3297;SDS011;1661;53.572;10.174;2022-11-15T03:24:28;30.97;;;19.77;;
3297;SDS011;1661;53.572;10.174;2022-11-15T03:26:57;28.10;;;18.63;;
3297;SDS011;1661;53.572;10.174;2022-11-15T03:29:28;35.93;;;22.60;;
3297;SDS011;1661;53.572;10.174;2022-11-15T03:31:59;44.17;;;21.43;;
3297;SDS011;1661;53.572;10.174;2022-11-15T03:34:31;36.33;;;22.90;;
3297;SDS011;1661;53.572;10.174;2022-11-15T03:37:04;28.40;;;17.73;;
3297;SDS011;1661;53.572;10.174;2022-11-15T03:39:35;29.33;;;20.83;;
3297;SDS011;1661;53.572;10.174;2022-11-15T03:42:04;34.87;;;19.20;;
3297;SDS011;1661;53.572;10.174;2022-11-15T03:44:44;24.03;;;16.47;;
3297;SDS011;1661;53.572;10.174;2022-11-15T03:47:19;30.33;;;18.10;;
3297;SDS011;1661;53.572;10.174;2022-11-15T03:49:51;28.47;;;19.07;;
3297;SDS011;1661;53.572;10.174;2022-11-15T03:52:22;42.70;;;24.93;;
3297;SDS011;1661;53.572;10.174;2022-11-15T03:54:49;39.13;;;23.07;;
3297;SDS011;1661;53.572;10.174;2022-11-15T03:57:21;35.47;;;22.40;;
3297;SDS011;1661;53.572;10.174;2022-11-15T03:59:48;40.20;;;22.70;;
3297;SDS011;1661;53.572;10.174;2022-11-15T04:02:16;25.57;;;17.40;;
3297;SDS011;1661;53.572;10.174;2022-11-15T04:04:42;32.10;;;20.67;;
3297;SDS011;1661;53.572;10.174;2022-11-15T04:07:11;26.37;;;16.93;;
3297;SDS011;1661;53.572;10.174;2022-11-15T04:09:38;35.43;;;21.63;;
3297;SDS011;1661;53.572;10.174;2022-11-15T04:12:24;29.90;;;19.73;;
3297;SDS011;1661;53.572;10.174;2022-11-15T04:14:57;27.47;;;19.03;;
3297;SDS011;1661;53.572;10.174;2022-11-15T04:17:33;24.93;;;17.13;;
3297;SDS011;1661;53.572;10.174;2022-11-15T04:20:05;22.93;;;16.30;;
3297;SDS011;1661;53.572;10.174;2022-11-15T04:22:53;32.17;;;22.57;;
3297;SDS011;1661;53.572;10.174;2022-11-15T04:25:38;34.07;;;21.20;;
3297;SDS011;1661;53.572;10.174;2022-11-15T04:28:05;28.43;;;21.17;;
3297;SDS011;1661;53.572;10.174;2022-11-15T04:30:32;32.83;;;18.03;;
3297;SDS011;1661;53.572;10.174;2022-11-15T04:32:59;36.40;;;23.47;;
3297;SDS011;1661;53.572;10.174;2022-11-15T04:35:25;33.17;;;24.00;;
3297;SDS011;1661;53.572;10.174;2022-11-15T04:37:54;31.37;;;20.17;;
3297;SDS011;1661;53.572;10.174;2022-11-15T04:40:20;40.27;;;24.27;;
3297;SDS011;1661;53.572;10.174;2022-11-15T04:42:46;35.83;;;24.40;;
3297;SDS011;1661;53.572;10.174;2022-11-15T04:45:13;40.77;;;25.43;;
3297;SDS011;1661;53.572;10.174;2022-11-15T04:47:42;34.90;;;22.70;;
3297;SDS011;1661;53.572;10.174;2022-11-15T04:50:09;37.67;;;24.53;;
3297;SDS011;1661;53.572;10.174;2022-11-15T04:52:38;37.40;;;22.57;;
3297;SDS011;1661;53.572;10.174;2022-11-15T04:55:07;36.00;;;23.90;;
3297;SDS011;1661;53.572;10.174;2022-11-15T04:57:34;37.23;;;24.40;;
3297;SDS011;1661;53.572;10.174;2022-11-15T05:00:02;39.70;;;23.60;;
3297;SDS011;1661;53.572;10.174;2022-11-15T05:02:30;29.17;;;19.30;;
3297;SDS011;1661;53.572;10.174;2022-11-15T05:05:11;33.63;;;23.73;;
3297;SDS011;1661;53.572;10.174;2022-11-15T05:07:38;35.70;;;21.93;;
3297;SDS011;1661;53.572;10.174;2022-11-15T05:10:05;32.40;;;19.70;;
3297;SDS011;1661;53.572;10.174;2022-11-15T05:12:33;38.30;;;23.30;;
3297;SDS011;1661;53.572;10.174;2022-11-15T05:15:00;29.13;;;22.00;;
3297;SDS011;1661;53.572;10.174;2022-11-15T05:17:27;37.33;;;24.90;;
3297;SDS011;1661;53.572;10.174;2022-11-15T05:19:54;36.83;;;24.00;;
3297;SDS011;1661;53.572;10.174;2022-11-15T05:22:21;35.90;;;25.30;;
3297;SDS011;1661;53.572;10.174;2022-11-15T05:24:48;32.23;;;21.60;;
3297;SDS011;1661;53.572;10.174;2022-11-15T05:27:18;35.87;;;24.87;;
3297;SDS011;1661;53.572;10.174;2022-11-15T05:29:48;43.97;;;26.77;;
3297;SDS011;1661;53.572;10.174;2022-11-15T05:32:18;39.50;;;26.27;;
3297;SDS011;1661;53.572;10.174;2022-11-15T05:34:44;41.40;;;26.77;;
3297;SDS011;1661;53.572;10.174;2022-11-15T05:37:12;44.60;;;25.67;;
3297;SDS011;1661;53.572;10.174;2022-11-15T05:39:39;41.10;;;26.17;;
3297;SDS011;1661;53.572;10.174;2022-11-15T05:42:06;42.00;;;24.77;;
3297;SDS011;1661;53.572;10.174;2022-11-15T05:44:38;42.93;;;26.40;;
3297;SDS011;1661;53.572;10.174;2022-11-15T05:47:11;43.73;;;23.80;;
3297;SDS011;1661;53.572;10.174;2022-11-15T05:49:41;40.13;;;25.57;;
3297;SDS011;1661;53.572;10.174;2022-11-15T05:52:11;42.00;;;29.00;;
3297;SDS011;1661;53.572;10.174;2022-11-15T05:54:42;42.60;;;26.87;;
3297;SDS011;1661;53.572;10.174;2022-11-15T05:57:10;43.10;;;25.27;;
3297;SDS011;1661;53.572;10.174;2022-11-15T05:59:41;41.43;;;27.00;;
3297;SDS011;1661;53.572;10.174;2022-11-15T06:02:09;35.23;;;24.03;;
3297;SDS011;1661;53.572;10.174;2022-11-15T06:04:36;42.10;;;24.93;;
3297;SDS011;1661;53.572;10.174;2022-11-15T06:07:03;45.70;;;28.50;;
3297;SDS011;1661;53.572;10.174;2022-11-15T06:09:29;43.83;;;27.60;;
3297;SDS011;1661;53.572;10.174;2022-11-15T06:11:56;47.83;;;26.27;;
3297;SDS011;1661;53.572;10.174;2022-11-15T06:14:23;42.20;;;25.33;;
3297;SDS011;1661;53.572;10.174;2022-11-15T06:16:54;37.03;;;23.80;;
3297;SDS011;1661;53.572;10.174;2022-11-15T06:19:24;44.00;;;26.10;;
3297;SDS011;1661;53.572;10.174;2022-11-15T06:21:50;44.43;;;26.70;;
3297;SDS011;1661;53.572;10.174;2022-11-15T06:24:20;39.67;;;26.47;;
3297;SDS011;1661;53.572;10.174;2022-11-15T06:26:48;40.40;;;26.13;;
3297;SDS011;1661;53.572;10.174;2022-11-15T06:29:18;38.03;;;25.27;;
3297;SDS011;1661;53.572;10.174;2022-11-15T06:31:45;45.23;;;25.80;;
3297;SDS011;1661;53.572;10.174;2022-11-15T06:34:13;39.07;;;26.40;;
3297;SDS011;1661;53.572;10.174;2022-11-15T06:36:40;36.60;;;22.40;;
3297;SDS011;1661;53.572;10.174;2022-11-15T06:39:07;48.53;;;27.00;;
3297;SDS011;1661;53.572;10.174;2022-11-15T06:41:33;42.40;;;25.40;;
3297;SDS011;1661;53.572;10.174;2022-11-15T06:44:01;43.07;;;25.30;;
3297;SDS011;1661;53.572;10.174;2022-11-15T06:46:28;37.53;;;26.67;;
3297;SDS011;1661;53.572;10.174;2022-11-15T06:48:55;40.23;;;25.60;;
3297;SDS011;1661;53.572;10.174;2022-11-15T06:51:23;37.53;;;25.10;;
3297;SDS011;1661;53.572;10.174;2022-11-15T06:53:50;38.60;;;25.97;;
3297;SDS011;1661;53.572;10.174;2022-11-15T06:56:17;39.20;;;23.50;;
3297;SDS011;1661;53.572;10.174;2022-11-15T06:58:43;43.33;;;26.63;;
3297;SDS011;1661;53.572;10.174;2022-11-15T07:01:11;39.20;;;25.47;;
3297;SDS011;1661;53.572;10.174;2022-11-15T07:03:39;43.07;;;26.07;;
3297;SDS011;1661;53.572;10.174;2022-11-15T07:06:08;39.07;;;25.63;;
3297;SDS011;1661;53.572;10.174;2022-11-15T07:08:42;43.13;;;25.97;;
3297;SDS011;1661;53.572;10.174;2022-11-15T07:11:09;41.77;;;27.47;;
3297;SDS011;1661;53.572;10.174;2022-11-15T07:13:36;43.17;;;25.87;;
3297;SDS011;1661;53.572;10.174;2022-11-15T07:16:03;36.83;;;25.67;;
3297;SDS011;1661;53.572;10.174;2022-11-15T07:18:33;35.60;;;22.23;;
3297;SDS011;1661;53.572;10.174;2022-11-15T07:21:01;39.97;;;25.73;;
3297;SDS011;1661;53.572;10.174;2022-11-15T07:23:28;41.27;;;27.00;;
3297;SDS011;1661;53.572;10.174;2022-11-15T07:25:57;41.20;;;25.03;;
3297;SDS011;1661;53.572;10.174;2022-11-15T07:28:27;43.70;;;25.43;;
3297;SDS011;1661;53.572;10.174;2022-11-15T07:30:54;37.83;;;24.80;;
3297;SDS011;1661;53.572;10.174;2022-11-15T07:33:21;34.13;;;25.90;;
3297;SDS011;1661;53.572;10.174;2022-11-15T07:35:48;43.07;;;27.00;;
3297;SDS011;1661;53.572;10.174;2022-11-15T07:38:15;38.57;;;26.57;;
3297;SDS011;1661;53.572;10.174;2022-11-15T07:40:55;38.57;;;26.07;;
3297;SDS011;1661;53.572;10.174;2022-11-15T07:43:23;35.83;;;26.50;;
3297;SDS011;1661;53.572;10.174;2022-11-15T07:45:52;34.17;;;22.47;;
3297;SDS011;1661;53.572;10.174;2022-11-15T07:48:19;44.97;;;27.70;;
3297;SDS011;1661;53.572;10.174;2022-11-15T07:50:46;38.67;;;24.33;;
3297;SDS011;1661;53.572;10.174;2022-11-15T07:53:16;29.67;;;21.50;;
3297;SDS011;1661;53.572;10.174;2022-11-15T07:55:43;35.67;;;24.57;;
3297;SDS011;1661;53.572;10.174;2022-11-15T07:58:12;45.00;;;28.17;;
3297;SDS011;1661;53.572;10.174;2022-11-15T08:00:40;36.70;;;24.23;;
3297;SDS011;1661;53.572;10.174;2022-11-15T08:03:08;39.77;;;24.60;;
3297;SDS011;1661;53.572;10.174;2022-11-15T08:05:38;37.17;;;24.47;;
3297;SDS011;1661;53.572;10.174;2022-11-15T08:08:06;43.13;;;23.80;;
3297;SDS011;1661;53.572;10.174;2022-11-15T08:10:33;34.50;;;22.87;;
3297;SDS011;1661;53.572;10.174;2022-11-15T08:13:05;39.77;;;26.43;;
3297;SDS011;1661;53.572;10.174;2022-11-15T08:15:32;44.17;;;26.77;;
3297;SDS011;1661;53.572;10.174;2022-11-15T08:18:05;40.20;;;24.33;;
3297;SDS011;1661;53.572;10.174;2022-11-15T08:20:37;43.00;;;25.77;;
3297;SDS011;1661;53.572;10.174;2022-11-15T08:23:05;34.67;;;23.63;;
3297;SDS011;1661;53.572;10.174;2022-11-15T08:25:32;34.40;;;23.67;;
3297;SDS011;1661;53.572;10.174;2022-11-15T08:28:01;37.40;;;25.20;;
3297;SDS011;1661;53.572;10.174;2022-11-15T08:30:29;39.57;;;23.10;;
3297;SDS011;1661;53.572;10.174;2022-11-15T08:32:57;38.27;;;25.80;;
3297;SDS011;1661;53.572;10.174;2022-11-15T10:20:12;30.43;;;19.47;;
3297;SDS011;1661;53.572;10.174;2022-11-15T10:22:45;26.73;;;19.67;;
3297;SDS011;1661;53.572;10.174;2022-11-15T10:25:21;26.20;;;18.33;;
3297;SDS011;1661;53.572;10.174;2022-11-15T10:27:55;21.90;;;16.80;;
3297;SDS011;1661;53.572;10.174;2022-11-15T10:30:28;25.20;;;17.83;;
3297;SDS011;1661;53.572;10.174;2022-11-15T10:32:58;24.83;;;19.40;;
3297;SDS011;1661;53.572;10.174;2022-11-15T10:35:38;23.87;;;17.33;;
3297;SDS011;1661;53.572;10.174;2022-11-15T10:38:07;26.40;;;18.93;;
3297;SDS011;1661;53.572;10.174;2022-11-15T10:40:35;24.70;;;17.90;;
3297;SDS011;1661;53.572;10.174;2022-11-15T10:43:05;23.90;;;17.93;;
3297;SDS011;1661;53.572;10.174;2022-11-15T10:45:38;25.40;;;16.80;;
3297;SDS011;1661;53.572;10.174;2022-11-15T10:48:19;27.37;;;18.80;;
3297;SDS011;1661;53.572;10.174;2022-11-15T10:50:50;24.67;;;18.07;;
3297;SDS011;1661;53.572;10.174;2022-11-15T10:56:07;28.70;;;17.80;;
3297;SDS011;1661;53.572;10.174;2022-11-15T10:58:38;22.40;;;18.07;;
3297;SDS011;1661;53.572;10.174;2022-11-15T11:01:11;22.33;;;16.60;;
3297;SDS011;1661;53.572;10.174;2022-11-15T11:03:40;23.33;;;16.80;;
3297;SDS011;1661;53.572;10.174;2022-11-15T11:06:10;28.07;;;16.30;;
3297;SDS011;1661;53.572;10.174;2022-11-15T11:08:39;27.43;;;16.50;;
3297;SDS011;1661;53.572;10.174;2022-11-15T11:11:06;26.23;;;18.13;;
3297;SDS011;1661;53.572;10.174;2022-11-15T11:13:34;19.20;;;15.70;;
3297;SDS011;1661;53.572;10.174;2022-11-15T11:16:08;27.53;;;19.13;;
3297;SDS011;1661;53.572;10.174;2022-11-15T11:19:02;24.87;;;16.30;;
3297;SDS011;1661;53.572;10.174;2022-11-15T11:21:42;21.50;;;17.07;;
3297;SDS011;1661;53.572;10.174;2022-11-15T11:24:15;21.03;;;17.13;;
3297;SDS011;1661;53.572;10.174;2022-11-15T11:26:55;25.57;;;17.20;;
3297;SDS011;1661;53.572;10.174;2022-11-15T11:29:36;26.10;;;17.83;;
3297;SDS011;1661;53.572;10.174;2022-11-15T11:32:16;19.43;;;14.80;;
3297;SDS011;1661;53.572;10.174;2022-11-15T11:34:55;25.73;;;15.33;;
3297;SDS011;1661;53.572;10.174;2022-11-15T11:37:30;22.00;;;14.57;;
3297;SDS011;1661;53.572;10.174;2022-11-15T11:40:07;21.93;;;16.70;;
3297;SDS011;1661;53.572;10.174;2022-11-15T11:42:50;19.40;;;15.03;;
3297;SDS011;1661;53.572;10.174;2022-11-15T11:45:26;25.23;;;16.13;;
3297;SDS011;1661;53.572;10.174;2022-11-15T11:48:09;25.00;;;18.67;;
3297;SDS011;1661;53.572;10.174;2022-11-15T11:50:39;25.93;;;17.20;;
3297;SDS011;1661;53.572;10.174;2022-11-15T11:53:11;27.03;;;16.13;;
3297;SDS011;1661;53.572;10.174;2022-11-15T11:55:43;17.17;;;14.97;;
3297;SDS011;1661;53.572;10.174;2022-11-15T11:58:14;18.27;;;15.67;;
3297;SDS011;1661;53.572;10.174;2022-11-15T12:00:45;19.43;;;15.10;;
3297;SDS011;1661;53.572;10.174;2022-11-15T12:03:19;20.17;;;15.40;;
3297;SDS011;1661;53.572;10.174;2022-11-15T12:05:54;26.10;;;14.10;;
3297;SDS011;1661;53.572;10.174;2022-11-15T12:08:27;19.73;;;14.87;;
3297;SDS011;1661;53.572;10.174;2022-11-15T12:11:00;22.87;;;14.93;;
3297;SDS011;1661;53.572;10.174;2022-11-15T12:13:32;17.57;;;14.70;;
3297;SDS011;1661;53.572;10.174;2022-11-15T12:16:03;20.10;;;15.20;;
3297;SDS011;1661;53.572;10.174;2022-11-15T12:18:35;17.97;;;15.60;;
3297;SDS011;1661;53.572;10.174;2022-11-15T12:21:03;18.07;;;14.83;;
3297;SDS011;1661;53.572;10.174;2022-11-15T12:23:37;21.17;;;15.30;;
3297;SDS011;1661;53.572;10.174;2022-11-15T12:26:10;21.80;;;16.30;;
3297;SDS011;1661;53.572;10.174;2022-11-15T12:28:45;18.33;;;14.77;;
3297;SDS011;1661;53.572;10.174;2022-11-15T12:31:15;18.87;;;14.97;;
3297;SDS011;1661;53.572;10.174;2022-11-15T12:33:47;17.20;;;14.77;;
3297;SDS011;1661;53.572;10.174;2022-11-15T12:36:29;18.47;;;16.03;;
3297;SDS011;1661;53.572;10.174;2022-11-15T12:39:02;21.23;;;13.97;;
3297;SDS011;1661;53.572;10.174;2022-11-15T12:41:30;16.30;;;14.47;;
3297;SDS011;1661;53.572;10.174;2022-11-15T12:43:58;18.63;;;13.63;;
3297;SDS011;1661;53.572;10.174;2022-11-15T12:52:18;19.10;;;15.10;;
3297;SDS011;1661;53.572;10.174;2022-11-15T12:55:08;25.73;;;14.70;;
3297;SDS011;1661;53.572;10.174;2022-11-15T12:57:58;16.33;;;13.10;;
3297;SDS011;1661;53.572;10.174;2022-11-15T13:00:53;19.67;;;14.73;;
3297;SDS011;1661;53.572;10.174;2022-11-15T13:03:21;18.60;;;14.03;;
3297;SDS011;1661;53.572;10.174;2022-11-15T13:06:09;16.80;;;13.03;;
3297;SDS011;1661;53.572;10.174;2022-11-15T13:12:09;18.03;;;13.50;;
3297;SDS011;1661;53.572;10.174;2022-11-15T13:14:43;16.80;;;13.73;;
3297;SDS011;1661;53.572;10.174;2022-11-15T13:22:48;16.57;;;13.47;;
3297;SDS011;1661;53.572;10.174;2022-11-15T13:25:23;22.10;;;14.43;;
3297;SDS011;1661;53.572;10.174;2022-11-15T13:28:08;13.80;;;12.37;;
3297;SDS011;1661;53.572;10.174;2022-11-15T13:30:38;16.60;;;12.57;;
3297;SDS011;1661;53.572;10.174;2022-11-15T13:33:07;16.40;;;12.10;;
3297;SDS011;1661;53.572;10.174;2022-11-15T13:35:38;17.97;;;12.23;;
3297;SDS011;1661;53.572;10.174;2022-11-15T13:38:17;14.90;;;12.23;;
3297;SDS011;1661;53.572;10.174;2022-11-15T13:40:46;14.77;;;12.60;;
3297;SDS011;1661;53.572;10.174;2022-11-15T13:43:28;19.20;;;13.17;;
3297;SDS011;1661;53.572;10.174;2022-11-15T13:46:06;15.00;;;12.50;;
3297;SDS011;1661;53.572;10.174;2022-11-15T13:48:37;16.70;;;12.93;;
3297;SDS011;1661;53.572;10.174;2022-11-15T13:51:04;16.20;;;12.57;;
3297;SDS011;1661;53.572;10.174;2022-11-15T13:53:42;19.30;;;12.73;;
3297;SDS011;1661;53.572;10.174;2022-11-15T13:56:15;18.07;;;14.60;;
3297;SDS011;1661;53.572;10.174;2022-11-15T13:58:45;20.97;;;12.70;;
3297;SDS011;1661;53.572;10.174;2022-11-15T14:01:14;18.27;;;13.23;;
3297;SDS011;1661;53.572;10.174;2022-11-15T14:03:49;17.60;;;15.33;;
3297;SDS011;1661;53.572;10.174;2022-11-15T14:06:19;14.47;;;12.03;;
3297;SDS011;1661;53.572;10.174;2022-11-15T14:08:58;20.80;;;14.47;;
3297;SDS011;1661;53.572;10.174;2022-11-15T14:11:27;15.13;;;13.53;;
3297;SDS011;1661;53.572;10.174;2022-11-15T14:14:01;16.73;;;12.50;;
3297;SDS011;1661;53.572;10.174;2022-11-15T14:16:41;16.70;;;13.17;;
3297;SDS011;1661;53.572;10.174;2022-11-15T14:19:10;15.37;;;12.27;;
3297;SDS011;1661;53.572;10.174;2022-11-15T14:24:40;13.60;;;12.20;;
3297;SDS011;1661;53.572;10.174;2022-11-15T14:27:20;18.83;;;12.70;;
3297;SDS011;1661;53.572;10.174;2022-11-15T14:29:57;16.50;;;13.90;;
3297;SDS011;1661;53.572;10.174;2022-11-15T14:32:25;16.83;;;11.50;;
3297;SDS011;1661;53.572;10.174;2022-11-15T14:34:54;18.50;;;11.70;;
3297;SDS011;1661;53.572;10.174;2022-11-15T14:37:23;24.03;;;12.33;;
3297;SDS011;1661;53.572;10.174;2022-11-15T14:39:53;13.03;;;10.77;;
3297;SDS011;1661;53.572;10.174;2022-11-15T14:42:29;18.07;;;10.50;;
3297;SDS011;1661;53.572;10.174;2022-11-15T14:45:13;21.73;;;12.90;;
3297;SDS011;1661;53.572;10.174;2022-11-15T14:47:42;12.63;;;11.30;;
3297;SDS011;1661;53.572;10.174;2022-11-15T14:50:11;12.73;;;11.40;;
3297;SDS011;1661;53.572;10.174;2022-11-15T14:52:38;14.77;;;12.67;;
3297;SDS011;1661;53.572;10.174;2022-11-15T14:55:11;17.73;;;13.80;;
3297;SDS011;1661;53.572;10.174;2022-11-15T14:57:42;18.63;;;12.57;;
3297;SDS011;1661;53.572;10.174;2022-11-15T15:00:13;13.57;;;11.37;;
3297;SDS011;1661;53.572;10.174;2022-11-15T15:02:41;12.50;;;11.10;;
3297;SDS011;1661;53.572;10.174;2022-11-15T15:05:13;14.17;;;11.10;;
3297;SDS011;1661;53.572;10.174;2022-11-15T15:07:42;12.47;;;11.17;;
3297;SDS011;1661;53.572;10.174;2022-11-15T15:10:09;14.33;;;12.10;;
3297;SDS011;1661;53.572;10.174;2022-11-15T15:12:36;13.47;;;11.60;;
3297;SDS011;1661;53.572;10.174;2022-11-15T15:15:04;19.03;;;11.90;;
3297;SDS011;1661;53.572;10.174;2022-11-15T15:17:40;22.73;;;12.53;;
3297;SDS011;1661;53.572;10.174;2022-11-15T15:20:07;16.57;;;13.17;;
3297;SDS011;1661;53.572;10.174;2022-11-15T15:22:35;19.60;;;13.30;;
3297;SDS011;1661;53.572;10.174;2022-11-15T15:25:01;16.80;;;11.50;;
3297;SDS011;1661;53.572;10.174;2022-11-15T15:27:29;23.33;;;13.20;;
3297;SDS011;1661;53.572;10.174;2022-11-15T15:29:55;15.40;;;13.80;;
3297;SDS011;1661;53.572;10.174;2022-11-15T15:32:24;23.17;;;12.40;;
3297;SDS011;1661;53.572;10.174;2022-11-15T15:34:50;16.30;;;12.87;;
3297;SDS011;1661;53.572;10.174;2022-11-15T15:37:21;21.90;;;12.13;;
3297;SDS011;1661;53.572;10.174;2022-11-15T15:39:50;14.43;;;12.93;;
3297;SDS011;1661;53.572;10.174;2022-11-15T15:42:17;16.80;;;13.00;;
3297;SDS011;1661;53.572;10.174;2022-11-15T15:44:44;14.23;;;12.60;;
3297;SDS011;1661;53.572;10.174;2022-11-15T15:47:11;21.30;;;14.07;;
3297;SDS011;1661;53.572;10.174;2022-11-15T15:49:42;14.83;;;12.63;;
3297;SDS011;1661;53.572;10.174;2022-11-15T15:52:09;19.13;;;14.00;;
3297;SDS011;1661;53.572;10.174;2022-11-15T15:54:36;15.07;;;12.73;;
3297;SDS011;1661;53.572;10.174;2022-11-15T15:57:03;15.23;;;13.40;;
3297;SDS011;1661;53.572;10.174;2022-11-15T15:59:31;19.97;;;13.40;;
3297;SDS011;1661;53.572;10.174;2022-11-15T16:01:58;17.23;;;13.10;;
3297;SDS011;1661;53.572;10.174;2022-11-15T16:04:24;19.70;;;14.93;;
3297;SDS011;1661;53.572;10.174;2022-11-15T16:06:57;18.17;;;13.50;;
3297;SDS011;1661;53.572;10.174;2022-11-15T16:09:24;19.73;;;13.80;;
3297;SDS011;1661;53.572;10.174;2022-11-15T16:12:06;16.33;;;14.07;;
3297;SDS011;1661;53.572;10.174;2022-11-15T16:14:33;18.80;;;16.90;;
3297;SDS011;1661;53.572;10.174;2022-11-15T16:17:00;18.10;;;15.83;;
3297;SDS011;1661;53.572;10.174;2022-11-15T16:19:26;17.53;;;13.77;;
3297;SDS011;1661;53.572;10.174;2022-11-15T16:21:55;17.50;;;14.13;;
3297;SDS011;1661;53.572;10.174;2022-11-15T16:24:22;19.33;;;13.77;;
3297;SDS011;1661;53.572;10.174;2022-11-15T16:26:49;21.17;;;14.77;;
3297;SDS011;1661;53.572;10.174;2022-11-15T16:29:17;18.20;;;15.20;;
3297;SDS011;1661;53.572;10.174;2022-11-15T16:31:44;14.67;;;13.03;;
3297;SDS011;1661;53.572;10.174;2022-11-15T16:34:11;19.43;;;14.10;;
3297;SDS011;1661;53.572;10.174;2022-11-15T16:36:39;20.00;;;14.20;;
3297;SDS011;1661;53.572;10.174;2022-11-15T16:39:08;14.33;;;12.83;;
3297;SDS011;1661;53.572;10.174;2022-11-15T16:41:40;14.30;;;12.87;;
3297;SDS011;1661;53.572;10.174;2022-11-15T16:44:12;15.90;;;13.73;;
3297;SDS011;1661;53.572;10.174;2022-11-15T16:46:40;17.67;;;14.60;;
3297;SDS011;1661;53.572;10.174;2022-11-15T16:49:08;22.30;;;14.00;;
3297;SDS011;1661;53.572;10.174;2022-11-15T16:51:39;20.73;;;14.80;;
3297;SDS011;1661;53.572;10.174;2022-11-15T16:54:07;17.53;;;15.00;;
3297;SDS011;1661;53.572;10.174;2022-11-15T16:56:34;22.97;;;15.40;;
3297;SDS011;1661;53.572;10.174;2022-11-15T16:59:01;26.00;;;14.80;;
3297;SDS011;1661;53.572;10.174;2022-11-15T17:01:30;18.40;;;13.80;;
3297;SDS011;1661;53.572;10.174;2022-11-15T17:03:57;18.80;;;13.93;;